createdAt,value
2019-01-19T00:02:37.431Z,4.30
2019-01-19T00:07:54.915Z,4.47
2019-01-19T00:14:04.419Z,4.07
2019-01-19T00:20:10.488Z,4.00
2019-01-19T00:26:18.478Z,4.40
2019-01-19T00:31:29.479Z,4.23
2019-01-19T00:37:01.782Z,4.33
2019-01-19T00:42:39.293Z,3.50
2019-01-19T00:48:24.380Z,4.10
2019-01-19T00:53:42.369Z,5.00
2019-01-19T00:58:56.604Z,4.60
2019-01-19T01:04:48.224Z,3.93
2019-01-19T01:10:09.540Z,4.57
2019-01-19T01:15:52.722Z,3.73
2019-01-19T01:22:01.606Z,3.80
2019-01-19T01:27:19.492Z,4.37
2019-01-19T01:33:37.494Z,4.10
2019-01-19T01:39:24.159Z,4.00
2019-01-19T01:45:07.561Z,4.10
2019-01-19T01:50:23.116Z,4.47
2019-01-19T01:55:52.625Z,4.17
2019-01-19T02:01:25.560Z,4.40
2019-01-19T02:07:08.458Z,5.13
2019-01-19T02:12:37.545Z,7.77
2019-01-19T02:17:59.311Z,7.80
2019-01-19T02:23:28.944Z,5.97
2019-01-19T02:29:04.176Z,5.43
2019-01-19T02:35:01.455Z,5.37
2019-01-19T02:41:11.303Z,4.80
2019-01-19T02:47:22.050Z,4.73
2019-01-19T02:53:10.913Z,4.90
2019-01-19T02:58:45.395Z,5.07
2019-01-19T03:04:45.663Z,4.93
2019-01-19T03:10:29.376Z,5.30
2019-01-19T03:16:35.457Z,5.40
2019-01-19T03:22:25.998Z,5.03
2019-01-19T03:28:11.923Z,5.77
2019-01-19T03:34:08.609Z,5.43
2019-01-19T03:39:55.579Z,5.90
2019-01-19T03:45:54.543Z,5.00
2019-01-19T03:51:28.544Z,5.17
2019-01-19T03:57:07.383Z,5.20
2019-01-19T04:02:25.061Z,5.80
2019-01-19T04:08:12.556Z,5.83
2019-01-19T04:13:54.609Z,6.10
2019-01-19T04:19:31.518Z,6.10
2019-01-19T04:25:15.102Z,6.23
2019-01-19T04:30:17.357Z,6.67
2019-01-19T04:35:20.384Z,6.93
2019-01-19T04:40:23.262Z,7.00
2019-01-19T04:45:25.750Z,6.50
2019-01-19T04:50:28.198Z,7.23
2019-01-19T04:55:30.459Z,6.50
2019-01-19T05:00:33.795Z,6.10
2019-01-19T05:05:36.868Z,6.80
2019-01-19T05:10:39.641Z,7.33
2019-01-19T05:15:41.953Z,7.83
2019-01-19T05:20:44.917Z,7.03
2019-01-19T05:25:47.283Z,8.10
2019-01-19T05:30:50.045Z,7.60
2019-01-19T05:35:52.807Z,7.40
2019-01-19T05:40:55.057Z,6.97
2019-01-19T05:45:57.330Z,8.17
2019-01-19T05:50:59.503Z,8.07
2019-01-19T05:56:02.020Z,7.70
2019-01-19T06:01:09.327Z,8.13
2019-01-19T06:06:12.565Z,7.40
2019-01-19T06:11:15.542Z,7.40
2019-01-19T06:16:17.807Z,7.60
2019-01-19T06:21:23.524Z,8.20
2019-01-19T06:26:25.843Z,7.80
2019-01-19T06:31:28.613Z,8.63
2019-01-19T06:36:30.838Z,8.50
2019-01-19T06:41:33.165Z,7.97
2019-01-19T06:46:35.999Z,10.90
2019-01-19T06:51:39.998Z,9.27
2019-01-19T06:56:42.823Z,10.50
2019-01-19T07:01:45.699Z,9.60
2019-01-19T07:06:48.008Z,8.83
2019-01-19T07:11:51.395Z,9.60
2019-01-19T07:16:54.162Z,8.60
2019-01-19T07:21:57.515Z,8.77
2019-01-19T07:27:00.462Z,9.40
2019-01-19T07:32:02.875Z,9.37
2019-01-19T07:37:09.700Z,9.87
2019-01-19T07:42:09.907Z,9.67
2019-01-19T07:47:13.269Z,11.00
2019-01-19T07:52:15.656Z,10.43
2019-01-19T07:57:17.893Z,9.87
2019-01-19T08:02:20.210Z,10.83
2019-01-19T08:07:22.860Z,9.63
2019-01-19T08:12:25.249Z,10.97
2019-01-19T08:17:27.488Z,11.53
2019-01-19T08:22:29.983Z,11.30
2019-01-19T08:27:32.803Z,11.43
2019-01-19T08:32:35.474Z,12.10
2019-01-19T08:37:38.228Z,12.43
2019-01-19T08:42:40.745Z,12.93
2019-01-19T08:47:43.414Z,13.30
2019-01-19T08:52:45.802Z,13.17
2019-01-19T08:57:48.558Z,13.90
2019-01-19T09:02:51.406Z,13.60
2019-01-19T09:07:54.056Z,13.83
2019-01-19T09:12:56.919Z,14.17
2019-01-19T09:17:59.689Z,13.70
2019-01-19T09:23:07.732Z,14.17
2019-01-19T09:28:10.350Z,14.83
2019-01-19T09:33:13.381Z,14.60
2019-01-19T09:38:16.222Z,14.83
2019-01-19T09:43:18.555Z,14.90
2019-01-19T09:48:21.317Z,15.10
2019-01-19T09:53:23.861Z,15.97
2019-01-19T09:58:26.685Z,15.87
2019-01-19T10:03:29.408Z,16.93
2019-01-19T10:13:54.034Z,16.77
2019-01-19T10:19:27.378Z,17.57
2019-01-19T10:26:28.342Z,16.83
2019-01-19T10:31:46.256Z,16.17
2019-01-19T10:36:56.321Z,16.03
2019-01-19T10:42:05.927Z,15.60
2019-01-19T10:47:50.236Z,15.90
2019-01-19T10:53:34.190Z,15.40
2019-01-19T10:58:41.826Z,15.20
2019-01-19T11:04:27.905Z,15.47
2019-01-19T11:09:44.537Z,17.17
2019-01-19T11:15:02.865Z,16.20
2019-01-19T11:20:10.626Z,15.53
2019-01-19T11:25:16.316Z,16.50
2019-01-19T11:30:24.955Z,16.53
2019-01-19T11:35:28.193Z,16.77
2019-01-19T11:40:35.963Z,16.13
2019-01-19T11:45:38.706Z,16.80
2019-01-19T11:50:41.417Z,17.73
2019-01-19T11:55:43.704Z,17.50
2019-01-19T12:00:46.716Z,17.87
2019-01-19T12:05:52.385Z,16.63
2019-01-19T12:10:54.914Z,16.83
2019-01-19T12:15:57.984Z,16.20
2019-01-19T12:21:00.487Z,16.23
2019-01-19T12:26:06.468Z,16.60
2019-01-19T12:31:08.695Z,15.17
2019-01-19T12:36:11.394Z,16.23
2019-01-19T12:41:13.917Z,15.37
2019-01-19T12:46:16.231Z,14.40
2019-01-19T12:51:18.623Z,16.27
2019-01-19T12:56:23.489Z,16.90
2019-01-19T13:01:25.968Z,15.37
2019-01-19T13:07:01.786Z,14.83
2019-01-19T13:12:31.950Z,15.87
2019-01-19T13:18:29.006Z,14.43
2019-01-19T13:24:08.830Z,13.93
2019-01-19T13:29:45.702Z,14.30
2019-01-19T13:35:47.508Z,13.03
2019-01-19T13:41:46.503Z,14.27
2019-01-19T13:47:31.456Z,13.07
2019-01-19T13:53:22.588Z,12.97
2019-01-19T13:58:47.493Z,13.13
2019-01-19T14:04:26.386Z,11.97
2019-01-19T14:10:23.014Z,13.50
2019-01-19T14:16:06.417Z,12.83
2019-01-19T14:21:42.160Z,12.37
2019-01-19T14:27:54.629Z,14.07
2019-01-19T14:34:10.279Z,13.80
2019-01-19T14:40:05.221Z,12.30
2019-01-19T14:45:59.938Z,13.17
2019-01-19T14:51:30.011Z,12.70
2019-01-19T14:57:01.964Z,14.90
2019-01-19T15:03:17.396Z,16.20
2019-01-19T15:08:53.596Z,19.00
2019-01-19T15:14:47.272Z,20.07
2019-01-19T15:20:23.561Z,21.30
2019-01-19T15:25:56.259Z,20.53
2019-01-19T15:31:20.486Z,20.80
2019-01-19T15:37:50.943Z,20.90
2019-01-19T15:43:45.689Z,20.30
2019-01-19T15:49:48.848Z,20.77
2019-01-19T15:55:33.863Z,19.27
2019-01-19T16:01:32.665Z,19.87
2019-01-19T16:07:23.597Z,20.37
2019-01-19T16:13:00.526Z,20.57
2019-01-19T16:18:24.351Z,20.00
2019-01-19T16:24:14.152Z,19.77
2019-01-19T16:29:36.492Z,21.70
2019-01-19T16:35:08.868Z,20.47
2019-01-19T16:41:14.238Z,21.60
2019-01-19T16:47:00.711Z,20.73
2019-01-19T16:52:49.295Z,22.23
2019-01-19T16:58:44.423Z,23.50
2019-01-19T17:04:46.520Z,19.87
2019-01-19T17:10:51.991Z,20.93
2019-01-19T17:16:28.212Z,22.67
2019-01-19T17:22:46.265Z,21.93
2019-01-19T17:28:17.266Z,22.30
2019-01-19T17:34:21.374Z,21.13
2019-01-19T17:40:31.159Z,22.70
2019-01-19T17:46:41.670Z,23.53
2019-01-19T17:52:50.201Z,23.40
2019-01-19T17:59:14.628Z,23.17
2019-01-19T18:05:27.327Z,23.63
2019-01-19T18:11:37.473Z,22.50
2019-01-19T18:17:34.035Z,23.57
2019-01-19T18:23:55.914Z,23.03
2019-01-19T18:29:53.637Z,24.53
2019-01-19T18:35:43.409Z,24.50
2019-01-19T18:41:28.146Z,23.70
2019-01-19T18:47:21.855Z,25.63
2019-01-19T18:52:54.650Z,25.87
2019-01-19T18:59:02.725Z,26.73
2019-01-19T19:04:57.454Z,26.77
2019-01-19T19:11:03.307Z,26.57
2019-01-19T19:17:00.666Z,28.30
2019-01-19T19:23:06.985Z,30.53
2019-01-19T19:28:52.911Z,28.20
2019-01-19T19:34:35.740Z,29.17
2019-01-19T19:40:49.232Z,30.27
2019-01-19T19:46:49.706Z,27.27
2019-01-19T19:51:54.117Z,26.93
2019-01-19T19:56:57.838Z,25.37
2019-01-19T20:02:23.377Z,27.40
2019-01-19T20:07:26.420Z,29.47
2019-01-19T20:12:28.767Z,29.73
2019-01-19T20:17:31.047Z,30.03
2019-01-19T20:22:33.286Z,30.47
2019-01-19T20:27:36.575Z,29.00
2019-01-19T20:32:39.039Z,27.90
2019-01-19T20:37:41.364Z,28.77
2019-01-19T20:48:53.864Z,27.63
2019-01-19T20:54:11.674Z,26.90
2019-01-19T20:59:19.750Z,24.53
2019-01-19T21:04:29.366Z,27.50
2019-01-19T21:09:52.120Z,29.77
2019-01-19T21:15:13.203Z,30.20
2019-01-19T21:25:40.792Z,30.90
2019-01-19T21:30:53.183Z,30.57
2019-01-19T21:36:27.229Z,28.37
2019-01-19T21:41:34.535Z,27.70
2019-01-19T21:48:07.003Z,30.93
2019-01-19T21:53:46.777Z,26.30
2019-01-19T21:59:08.234Z,26.97
2019-01-19T22:04:56.757Z,26.93
2019-01-19T22:10:26.758Z,34.40
2019-01-19T22:16:06.371Z,34.10
2019-01-19T22:21:42.738Z,29.97
2019-01-19T22:26:51.507Z,31.77
2019-01-19T22:31:54.997Z,28.77
2019-01-19T22:36:57.727Z,27.80
2019-01-19T22:42:00.968Z,27.63
2019-01-19T22:47:04.279Z,27.00
2019-01-19T22:52:07.101Z,25.60
2019-01-19T22:57:09.353Z,26.10
2019-01-19T23:02:12.595Z,27.07
2019-01-19T23:07:15.244Z,25.87
2019-01-19T23:12:18.134Z,26.33
2019-01-19T23:17:20.957Z,26.50
2019-01-19T23:22:24.854Z,26.33
2019-01-19T23:27:27.238Z,26.57
2019-01-19T23:32:29.665Z,28.33
2019-01-19T23:37:31.916Z,27.70
2019-01-19T23:42:34.166Z,27.43
2019-01-19T23:47:37.196Z,27.37
2019-01-19T23:52:39.968Z,26.63
2019-01-19T23:57:42.523Z,27.50
